sensor_id;sensor_type;location;lat;lon;timestamp;pressure;altitude;pressure_sealevel;temperature;humidity
6532;BME280;3299;42.004;24.868;2023-03-22T00:01:13;97846.53;;;12.39;100.00
6532;BME280;3299;42.004;24.868;2023-03-22T00:03:38;97774.88;;;11.88;100.00
6532;BME280;3299;42.004;24.868;2023-03-22T00:06:05;97779.44;;;11.75;100.00
6532;BME280;3299;42.004;24.868;2023-03-22T00:08:31;97830.91;;;12.09;100.00
6532;BME280;3299;42.004;24.868;2023-03-22T00:10:56;97837.56;;;12.23;100.00
6532;BME280;3299;42.004;24.868;2023-03-22T00:13:22;97837.69;;;12.21;100.00
6532;BME280;3299;42.004;24.868;2023-03-22T00:15:47;97832.63;;;12.20;100.00
6532;BME280;3299;42.004;24.868;2023-03-22T00:18:16;97785.03;;;12.00;100.00
6532;BME280;3299;42.004;24.868;2023-03-22T00:20:49;97762.09;;;11.96;100.00
6532;BME280;3299;42.004;24.868;2023-03-22T00:23:15;97811.09;;;12.29;100.00
6532;BME280;3299;42.004;24.868;2023-03-22T00:25:42;97770.81;;;11.95;100.00
6532;BME280;3299;42.004;24.868;2023-03-22T00:28:08;97809.16;;;12.21;100.00
6532;BME280;3299;42.004;24.868;2023-03-22T00:30:33;97782.31;;;12.02;100.00
6532;BME280;3299;42.004;24.868;2023-03-22T00:32:58;97771.63;;;11.95;100.00
6532;BME280;3299;42.004;24.868;2023-03-22T00:35:24;97830.31;;;12.26;100.00
6532;BME280;3299;42.004;24.868;2023-03-22T00:37:49;97820.06;;;12.15;100.00
6532;BME280;3299;42.004;24.868;2023-03-22T00:40:16;97766.22;;;11.78;100.00
6532;BME280;3299;42.004;24.868;2023-03-22T00:42:41;97770.75;;;11.85;100.00
6532;BME280;3299;42.004;24.868;2023-03-22T00:45:09;97776.09;;;11.84;100.00
6532;BME280;3299;42.004;24.868;2023-03-22T00:47:35;97793.31;;;11.94;100.00
6532;BME280;3299;42.004;24.868;2023-03-22T00:50:01;97750.75;;;11.67;100.00
6532;BME280;3299;42.004;24.868;2023-03-22T00:52:27;97810.78;;;12.13;100.00
6532;BME280;3299;42.004;24.868;2023-03-22T00:54:54;97781.16;;;11.95;100.00
6532;BME280;3299;42.004;24.868;2023-03-22T00:57:20;97774.38;;;11.73;100.00
6532;BME280;3299;42.004;24.868;2023-03-22T00:59:46;97815.97;;;11.92;100.00
6532;BME280;3299;42.004;24.868;2023-03-22T01:02:11;97785.13;;;11.69;100.00
6532;BME280;3299;42.004;24.868;2023-03-22T01:04:41;97771.19;;;11.49;100.00
6532;BME280;3299;42.004;24.868;2023-03-22T01:07:15;97839.03;;;11.95;100.00
6532;BME280;3299;42.004;24.868;2023-03-22T01:09:49;97746.69;;;11.33;100.00
6532;BME280;3299;42.004;24.868;2023-03-22T01:12:16;97781.75;;;11.57;100.00
6532;BME280;3299;42.004;24.868;2023-03-22T01:14:42;97813.44;;;11.61;100.00
6532;BME280;3299;42.004;24.868;2023-03-22T01:17:07;97780.97;;;11.46;100.00
6532;BME280;3299;42.004;24.868;2023-03-22T01:19:34;97771.19;;;11.29;100.00
6532;BME280;3299;42.004;24.868;2023-03-22T01:22:01;97813.47;;;11.50;100.00
6532;BME280;3299;42.004;24.868;2023-03-22T01:24:26;97794.56;;;11.38;100.00
6532;BME280;3299;42.004;24.868;2023-03-22T01:26:52;97807.34;;;11.51;100.00
6532;BME280;3299;42.004;24.868;2023-03-22T01:29:17;97803.56;;;11.55;100.00
6532;BME280;3299;42.004;24.868;2023-03-22T01:31:43;97821.34;;;11.59;100.00
6532;BME280;3299;42.004;24.868;2023-03-22T01:34:09;97725.38;;;11.09;100.00
6532;BME280;3299;42.004;24.868;2023-03-22T01:36:37;97728.47;;;11.03;100.00
6532;BME280;3299;42.004;24.868;2023-03-22T01:39:03;97814.22;;;11.41;100.00
6532;BME280;3299;42.004;24.868;2023-03-22T01:41:28;97773.56;;;11.21;100.00
6532;BME280;3299;42.004;24.868;2023-03-22T01:46:36;97725.00;;;10.82;100.00
6532;BME280;3299;42.004;24.868;2023-03-22T01:49:02;97828.50;;;11.35;100.00
6532;BME280;3299;42.004;24.868;2023-03-22T01:51:30;97771.53;;;11.04;100.00
6532;BME280;3299;42.004;24.868;2023-03-22T01:54:00;97829.78;;;11.30;100.00
6532;BME280;3299;42.004;24.868;2023-03-22T01:56:30;97788.94;;;11.02;100.00
6532;BME280;3299;42.004;24.868;2023-03-22T01:58:58;97829.03;;;11.18;100.00
6532;BME280;3299;42.004;24.868;2023-03-22T02:01:23;97821.03;;;11.10;100.00
6532;BME280;3299;42.004;24.868;2023-03-22T02:04:04;97831.75;;;11.06;100.00
6532;BME280;3299;42.004;24.868;2023-03-22T02:06:33;97819.66;;;10.95;100.00
6532;BME280;3299;42.004;24.868;2023-03-22T02:09:06;97746.13;;;10.55;100.00
6532;BME280;3299;42.004;24.868;2023-03-22T02:11:35;97827.03;;;11.11;100.00
6532;BME280;3299;42.004;24.868;2023-03-22T02:14:38;97833.41;;;11.07;100.00
6532;BME280;3299;42.004;24.868;2023-03-22T02:17:26;97817.47;;;10.91;100.00
6532;BME280;3299;42.004;24.868;2023-03-22T02:22:46;97823.22;;;10.94;100.00
6532;BME280;3299;42.004;24.868;2023-03-22T02:42:43;97827.63;;;11.03;100.00
6532;BME280;3299;42.004;24.868;2023-03-22T02:46:00;97802.41;;;10.85;100.00
6532;BME280;3299;42.004;24.868;2023-03-22T02:48:12;97807.91;;;10.91;100.00
6532;BME280;3299;42.004;24.868;2023-03-22T02:53:17;97839.22;;;10.88;100.00
6532;BME280;3299;42.004;24.868;2023-03-22T02:58:24;97741.63;;;10.15;100.00
6532;BME280;3299;42.004;24.868;2023-03-22T03:00:56;97761.09;;;10.19;100.00
6532;BME280;3299;42.004;24.868;2023-03-22T03:03:26;97748.19;;;10.08;100.00
6532;BME280;3299;42.004;24.868;2023-03-22T03:06:00;97768.75;;;10.20;100.00
6532;BME280;3299;42.004;24.868;2023-03-22T03:08:28;97789.66;;;10.28;100.00
6532;BME280;3299;42.004;24.868;2023-03-22T03:10:55;97811.88;;;10.42;100.00
6532;BME280;3299;42.004;24.868;2023-03-22T03:13:21;97835.25;;;10.51;100.00
6532;BME280;3299;42.004;24.868;2023-03-22T03:15:57;97740.19;;;9.89;100.00
6532;BME280;3299;42.004;24.868;2023-03-22T03:24:24;97843.59;;;10.77;100.00
6532;BME280;3299;42.004;24.868;2023-03-22T03:29:42;97845.00;;;10.70;100.00
6532;BME280;3299;42.004;24.868;2023-03-22T03:32:34;97843.69;;;10.86;100.00
6532;BME280;3299;42.004;24.868;2023-03-22T03:35:11;97829.00;;;10.76;100.00
6532;BME280;3299;42.004;24.868;2023-03-22T03:37:59;97837.13;;;10.71;100.00
6532;BME280;3299;42.004;24.868;2023-03-22T03:40:32;97851.91;;;10.91;100.00
6532;BME280;3299;42.004;24.868;2023-03-22T03:43:01;97848.72;;;10.99;100.00
6532;BME280;3299;42.004;24.868;2023-03-22T03:45:28;97836.50;;;10.90;100.00
6532;BME280;3299;42.004;24.868;2023-03-22T03:48:03;97785.59;;;10.68;100.00
6532;BME280;3299;42.004;24.868;2023-03-22T03:50:29;97773.06;;;10.64;100.00
6532;BME280;3299;42.004;24.868;2023-03-22T03:52:55;97796.50;;;10.94;100.00
6532;BME280;3299;42.004;24.868;2023-03-22T03:55:22;97819.84;;;11.14;100.00
6532;BME280;3299;42.004;24.868;2023-03-22T03:57:47;97777.69;;;10.92;100.00
6532;BME280;3299;42.004;24.868;2023-03-22T04:00:13;97810.81;;;11.09;100.00
6532;BME280;3299;42.004;24.868;2023-03-22T04:02:40;97861.56;;;11.43;100.00
6532;BME280;3299;42.004;24.868;2023-03-22T04:05:06;97869.44;;;11.41;100.00
6532;BME280;3299;42.004;24.868;2023-03-22T04:07:32;97799.78;;;10.96;100.00
6532;BME280;3299;42.004;24.868;2023-03-22T04:09:58;97855.69;;;11.30;100.00
6532;BME280;3299;42.004;24.868;2023-03-22T04:12:24;97796.50;;;10.94;100.00
6532;BME280;3299;42.004;24.868;2023-03-22T04:14:49;97805.91;;;10.84;100.00
6532;BME280;3299;42.004;24.868;2023-03-22T04:17:14;97875.34;;;11.32;100.00
6532;BME280;3299;42.004;24.868;2023-03-22T04:19:40;97836.44;;;11.12;100.00
6532;BME280;3299;42.004;24.868;2023-03-22T04:22:06;97838.94;;;11.02;100.00
6532;BME280;3299;42.004;24.868;2023-03-22T04:24:42;97893.84;;;11.28;100.00
6532;BME280;3299;42.004;24.868;2023-03-22T04:27:08;97843.09;;;10.94;100.00
6532;BME280;3299;42.004;24.868;2023-03-22T04:29:33;97866.34;;;11.05;100.00
6532;BME280;3299;42.004;24.868;2023-03-22T04:32:01;97799.19;;;10.50;100.00
6532;BME280;3299;42.004;24.868;2023-03-22T04:34:26;97802.25;;;10.44;100.00
6532;BME280;3299;42.004;24.868;2023-03-22T04:36:52;97802.25;;;10.44;100.00
6532;BME280;3299;42.004;24.868;2023-03-22T04:39:18;97809.84;;;10.56;100.00
6532;BME280;3299;42.004;24.868;2023-03-22T04:41:44;97824.09;;;10.73;100.00
6532;BME280;3299;42.004;24.868;2023-03-22T04:44:09;97801.72;;;10.72;100.00
6532;BME280;3299;42.004;24.868;2023-03-22T04:46:35;97893.38;;;11.23;100.00
6532;BME280;3299;42.004;24.868;2023-03-22T04:49:02;97812.31;;;10.69;100.00
6532;BME280;3299;42.004;24.868;2023-03-22T04:51:28;97868.00;;;11.06;100.00
6532;BME280;3299;42.004;24.868;2023-03-22T04:53:54;97794.81;;;10.50;100.00
6532;BME280;3299;42.004;24.868;2023-03-22T04:56:20;97806.47;;;10.56;100.00
6532;BME280;3299;42.004;24.868;2023-03-22T04:58:46;97864.97;;;10.90;100.00
6532;BME280;3299;42.004;24.868;2023-03-22T05:01:13;97879.56;;;10.91;100.00
6532;BME280;3299;42.004;24.868;2023-03-22T05:03:39;97874.41;;;10.80;100.00
6532;BME280;3299;42.004;24.868;2023-03-22T05:06:08;97882.88;;;10.49;100.00
6532;BME280;3299;42.004;24.868;2023-03-22T05:08:34;97818.69;;;10.10;100.00
6532;BME280;3299;42.004;24.868;2023-03-22T05:11:09;97897.31;;;10.51;100.00
6532;BME280;3299;42.004;24.868;2023-03-22T05:13:35;97840.31;;;10.09;100.00
6532;BME280;3299;42.004;24.868;2023-03-22T05:16:02;97905.94;;;10.63;100.00
6532;BME280;3299;42.004;24.868;2023-03-22T05:18:28;97863.47;;;10.43;100.00
6532;BME280;3299;42.004;24.868;2023-03-22T05:20:55;97869.50;;;10.44;100.00
6532;BME280;3299;42.004;24.868;2023-03-22T05:23:22;97923.09;;;10.86;100.00
6532;BME280;3299;42.004;24.868;2023-03-22T05:25:49;97862.19;;;10.60;100.00
6532;BME280;3299;42.004;24.868;2023-03-22T05:28:16;97868.06;;;10.62;100.00
6532;BME280;3299;42.004;24.868;2023-03-22T05:30:44;97881.22;;;10.70;100.00
6532;BME280;3299;42.004;24.868;2023-03-22T05:33:10;97870.66;;;10.51;100.00
6532;BME280;3299;42.004;24.868;2023-03-22T05:35:37;97883.81;;;10.59;100.00
6532;BME280;3299;42.004;24.868;2023-03-22T05:38:04;97864.06;;;10.47;100.00
6532;BME280;3299;42.004;24.868;2023-03-22T05:40:29;97880.53;;;10.46;100.00
6532;BME280;3299;42.004;24.868;2023-03-22T05:42:55;97950.59;;;10.65;100.00
6532;BME280;3299;42.004;24.868;2023-03-22T05:45:21;97871.78;;;10.14;100.00
6532;BME280;3299;42.004;24.868;2023-03-22T05:47:47;97962.34;;;10.47;100.00
6532;BME280;3299;42.004;24.868;2023-03-22T05:50:15;97944.00;;;10.39;100.00
6532;BME280;3299;42.004;24.868;2023-03-22T05:52:41;97958.00;;;10.47;100.00
6532;BME280;3299;42.004;24.868;2023-03-22T05:55:10;97987.28;;;10.59;100.00
6532;BME280;3299;42.004;24.868;2023-03-22T05:57:37;97988.94;;;10.71;100.00
6532;BME280;3299;42.004;24.868;2023-03-22T06:00:04;97908.94;;;10.24;100.00
6532;BME280;3299;42.004;24.868;2023-03-22T06:02:30;97928.63;;;10.48;100.00
6532;BME280;3299;42.004;24.868;2023-03-22T06:04:56;98003.56;;;10.94;100.00
6532;BME280;3299;42.004;24.868;2023-03-22T06:07:21;97984.47;;;10.84;100.00
6532;BME280;3299;42.004;24.868;2023-03-22T06:09:47;97973.06;;;10.75;100.00
6532;BME280;3299;42.004;24.868;2023-03-22T06:12:15;97924.47;;;10.24;100.00
6532;BME280;3299;42.004;24.868;2023-03-22T06:14:41;97989.81;;;10.82;100.00
6532;BME280;3299;42.004;24.868;2023-03-22T06:17:07;97934.38;;;10.63;100.00
6532;BME280;3299;42.004;24.868;2023-03-22T06:19:33;97938.03;;;10.60;100.00
6532;BME280;3299;42.004;24.868;2023-03-22T06:21:58;98009.44;;;10.96;100.00
6532;BME280;3299;42.004;24.868;2023-03-22T06:24:24;97986.94;;;10.74;100.00
6532;BME280;3299;42.004;24.868;2023-03-22T06:26:50;97935.06;;;10.43;100.00
6532;BME280;3299;42.004;24.868;2023-03-22T06:29:15;98012.63;;;10.99;100.00
6532;BME280;3299;42.004;24.868;2023-03-22T06:31:41;97971.22;;;10.77;100.00
6532;BME280;3299;42.004;24.868;2023-03-22T06:34:06;98012.97;;;11.06;100.00
6532;BME280;3299;42.004;24.868;2023-03-22T06:36:32;98014.97;;;10.91;100.00
6532;BME280;3299;42.004;24.868;2023-03-22T06:38:57;97929.78;;;10.44;100.00
6532;BME280;3299;42.004;24.868;2023-03-22T06:41:25;97940.50;;;10.62;100.00
6532;BME280;3299;42.004;24.868;2023-03-22T06:43:50;98029.56;;;11.03;100.00
6532;BME280;3299;42.004;24.868;2023-03-22T06:46:16;97944.59;;;10.42;100.00
6532;BME280;3299;42.004;24.868;2023-03-22T06:48:41;98017.31;;;10.83;100.00
6532;BME280;3299;42.004;24.868;2023-03-22T06:51:07;97986.81;;;10.65;100.00
6532;BME280;3299;42.004;24.868;2023-03-22T06:53:32;97964.00;;;10.48;100.00
6532;BME280;3299;42.004;24.868;2023-03-22T06:55:58;98028.00;;;10.90;100.00
6532;BME280;3299;42.004;24.868;2023-03-22T06:58:23;98017.28;;;10.61;100.00
6532;BME280;3299;42.004;24.868;2023-03-22T07:00:49;97990.41;;;10.40;100.00
6532;BME280;3299;42.004;24.868;2023-03-22T07:03:14;97981.00;;;10.39;100.00
6532;BME280;3299;42.004;24.868;2023-03-22T07:05:40;97973.84;;;10.43;100.00
6532;BME280;3299;42.004;24.868;2023-03-22T07:08:05;98036.00;;;10.76;100.00
6532;BME280;3299;42.004;24.868;2023-03-22T07:10:31;98015.38;;;10.41;100.00
6532;BME280;3299;42.004;24.868;2023-03-22T07:12:56;98007.59;;;10.52;100.00
6532;BME280;3299;42.004;24.868;2023-03-22T07:15:22;97923.41;;;10.26;100.00
6532;BME280;3299;42.004;24.868;2023-03-22T07:17:49;97965.31;;;10.53;100.00
6532;BME280;3299;42.004;24.868;2023-03-22T07:20:16;97941.31;;;10.51;100.00
6532;BME280;3299;42.004;24.868;2023-03-22T07:22:41;97911.75;;;10.32;100.00
6532;BME280;3299;42.004;24.868;2023-03-22T07:25:07;97955.19;;;10.61;100.00
6532;BME280;3299;42.004;24.868;2023-03-22T07:27:33;97938.84;;;10.61;100.00
6532;BME280;3299;42.004;24.868;2023-03-22T07:29:58;97996.38;;;10.86;100.00
6532;BME280;3299;42.004;24.868;2023-03-22T07:32:23;97971.56;;;10.62;100.00
6532;BME280;3299;42.004;24.868;2023-03-22T07:34:49;97926.22;;;10.34;100.00
6532;BME280;3299;42.004;24.868;2023-03-22T07:37:14;97938.84;;;10.39;100.00
6532;BME280;3299;42.004;24.868;2023-03-22T07:39:40;98029.91;;;10.88;100.00
6532;BME280;3299;42.004;24.868;2023-03-22T07:42:05;97996.25;;;10.77;100.00
6532;BME280;3299;42.004;24.868;2023-03-22T07:44:31;98036.53;;;11.03;100.00
6532;BME280;3299;42.004;24.868;2023-03-22T07:46:56;98036.97;;;11.19;100.00
6532;BME280;3299;42.004;24.868;2023-03-22T07:49:21;97976.63;;;10.85;100.00
6532;BME280;3299;42.004;24.868;2023-03-22T07:51:47;98024.88;;;11.19;100.00
6532;BME280;3299;42.004;24.868;2023-03-22T07:54:12;98045.59;;;11.30;100.00
6532;BME280;3299;42.004;24.868;2023-03-22T07:56:37;98039.34;;;11.22;100.00
6532;BME280;3299;42.004;24.868;2023-03-22T07:59:05;98052.97;;;11.24;100.00
6532;BME280;3299;42.004;24.868;2023-03-22T08:01:30;98073.22;;;11.19;100.00
6532;BME280;3299;42.004;24.868;2023-03-22T08:03:56;98054.06;;;10.99;100.00
6532;BME280;3299;42.004;24.868;2023-03-22T08:06:21;98050.63;;;10.88;100.00
6532;BME280;3299;42.004;24.868;2023-03-22T08:08:47;98074.53;;;11.13;100.00
6532;BME280;3299;42.004;24.868;2023-03-22T08:11:12;97991.97;;;10.54;100.00
6532;BME280;3299;42.004;24.868;2023-03-22T08:13:38;98050.50;;;10.89;100.00
6532;BME280;3299;42.004;24.868;2023-03-22T08:16:04;98084.53;;;11.18;100.00
6532;BME280;3299;42.004;24.868;2023-03-22T08:18:30;98066.63;;;11.04;100.00
6532;BME280;3299;42.004;24.868;2023-03-22T08:20:57;98049.69;;;11.00;100.00
6532;BME280;3299;42.004;24.868;2023-03-22T08:23:23;98051.31;;;11.01;100.00
6532;BME280;3299;42.004;24.868;2023-03-22T08:25:49;98077.97;;;11.14;100.00
6532;BME280;3299;42.004;24.868;2023-03-22T08:28:15;98085.72;;;11.14;100.00
6532;BME280;3299;42.004;24.868;2023-03-22T08:30:42;98064.50;;;10.98;100.00
6532;BME280;3299;42.004;24.868;2023-03-22T08:33:08;98068.06;;;11.08;100.00
6532;BME280;3299;42.004;24.868;2023-03-22T08:35:34;98031.44;;;11.01;100.00
6532;BME280;3299;42.004;24.868;2023-03-22T08:37:59;98047.09;;;11.11;100.00
6532;BME280;3299;42.004;24.868;2023-03-22T08:40:25;98064.06;;;11.15;100.00
6532;BME280;3299;42.004;24.868;2023-03-22T08:42:51;98006.59;;;10.77;100.00
6532;BME280;3299;42.004;24.868;2023-03-22T08:45:16;98015.44;;;10.85;100.00
6532;BME280;3299;42.004;24.868;2023-03-22T08:47:42;98017.94;;;10.98;100.00
6532;BME280;3299;42.004;24.868;2023-03-22T08:50:09;98073.81;;;11.44;100.00
6532;BME280;3299;42.004;24.868;2023-03-22T08:52:35;98006.38;;;11.13;100.00
6532;BME280;3299;42.004;24.868;2023-03-22T08:55:00;98070.53;;;11.53;100.00
6532;BME280;3299;42.004;24.868;2023-03-22T08:57:26;98067.59;;;11.47;100.00
6532;BME280;3299;42.004;24.868;2023-03-22T08:59:54;98005.31;;;11.26;100.00
6532;BME280;3299;42.004;24.868;2023-03-22T09:02:22;98021.91;;;11.46;100.00
6532;BME280;3299;42.004;24.868;2023-03-22T09:04:47;98097.22;;;11.98;100.00
6532;BME280;3299;42.004;24.868;2023-03-22T09:07:13;98088.75;;;11.96;100.00
6532;BME280;3299;42.004;24.868;2023-03-22T09:09:38;98018.34;;;11.47;100.00
6532;BME280;3299;42.004;24.868;2023-03-22T09:12:04;98026.72;;;11.61;100.00
6532;BME280;3299;42.004;24.868;2023-03-22T09:14:29;98015.31;;;11.64;100.00
6532;BME280;3299;42.004;24.868;2023-03-22T09:16:55;98015.38;;;11.73;100.00
6532;BME280;3299;42.004;24.868;2023-03-22T09:19:20;98017.66;;;11.67;100.00
6532;BME280;3299;42.004;24.868;2023-03-22T09:21:46;98082.59;;;12.08;100.00
6532;BME280;3299;42.004;24.868;2023-03-22T09:24:12;98039.63;;;11.94;100.00
6532;BME280;3299;42.004;24.868;2023-03-22T09:26:37;98077.41;;;12.08;100.00
6532;BME280;3299;42.004;24.868;2023-03-22T09:29:02;98084.59;;;12.15;100.00
6532;BME280;3299;42.004;24.868;2023-03-22T09:31:28;98003.03;;;11.66;100.00
6532;BME280;3299;42.004;24.868;2023-03-22T09:33:53;98067.94;;;12.18;100.00
6532;BME280;3299;42.004;24.868;2023-03-22T09:36:20;98035.00;;;11.98;100.00
6532;BME280;3299;42.004;24.868;2023-03-22T09:38:47;98009.09;;;11.98;100.00
6532;BME280;3299;42.004;24.868;2023-03-22T09:41:35;98016.44;;;12.13;100.00
6532;BME280;3299;42.004;24.868;2023-03-22T09:44:06;98078.81;;;12.12;100.00
6532;BME280;3299;42.004;24.868;2023-03-22T09:46:39;98007.63;;;11.62;100.00
6532;BME280;3299;42.004;24.868;2023-03-22T09:49:13;98092.22;;;12.17;100.00
6532;BME280;3299;42.004;24.868;2023-03-22T09:51:43;98067.44;;;11.92;100.00
6532;BME280;3299;42.004;24.868;2023-03-22T09:54:41;98058.28;;;11.77;100.00
6532;BME280;3299;42.004;24.868;2023-03-22T10:08:17;98096.25;;;12.73;100.00
6532;BME280;3299;42.004;24.868;2023-03-22T10:10:46;98038.06;;;12.55;100.00
6532;BME280;3299;42.004;24.868;2023-03-22T10:13:22;98010.47;;;12.54;100.00
6532;BME280;3299;42.004;24.868;2023-03-22T10:15:57;98028.56;;;12.85;100.00
6532;BME280;3299;42.004;24.868;2023-03-22T10:18:26;98063.47;;;13.13;100.00
6532;BME280;3299;42.004;24.868;2023-03-22T10:21:14;98078.50;;;13.39;100.00
6532;BME280;3299;42.004;24.868;2023-03-22T10:23:48;98089.06;;;13.47;100.00
6532;BME280;3299;42.004;24.868;2023-03-22T10:28:47;98038.69;;;13.39;100.00
6532;BME280;3299;42.004;24.868;2023-03-22T10:31:15;98065.59;;;13.68;100.00
6532;BME280;3299;42.004;24.868;2023-03-22T10:34:06;98082.38;;;13.94;100.00
6532;BME280;3299;42.004;24.868;2023-03-22T10:36:34;98074.16;;;13.89;100.00
6532;BME280;3299;42.004;24.868;2023-03-22T10:39:36;98071.16;;;14.03;100.00
6532;BME280;3299;42.004;24.868;2023-03-22T10:42:07;97995.25;;;13.60;100.00
6532;BME280;3299;42.004;24.868;2023-03-22T10:44:52;98065.78;;;13.85;100.00
6532;BME280;3299;42.004;24.868;2023-03-22T10:47:30;98072.63;;;13.77;100.00
6532;BME280;3299;42.004;24.868;2023-03-22T10:49:59;97984.75;;;13.31;100.00
6532;BME280;3299;42.004;24.868;2023-03-22T10:54:53;98030.78;;;13.50;100.00
6532;BME280;3299;42.004;24.868;2023-03-22T10:57:20;98030.00;;;13.59;100.00
6532;BME280;3299;42.004;24.868;2023-03-22T11:02:28;98028.44;;;13.96;100.00
6532;BME280;3299;42.004;24.868;2023-03-22T11:05:01;97991.72;;;13.89;100.00
6532;BME280;3299;42.004;24.868;2023-03-22T11:07:39;98012.81;;;14.15;100.00
6532;BME280;3299;42.004;24.868;2023-03-22T11:12:33;97979.28;;;14.02;100.00
6532;BME280;3299;42.004;24.868;2023-03-22T11:14:59;98057.38;;;14.50;100.00
6532;BME280;3299;42.004;24.868;2023-03-22T11:17:24;97973.13;;;14.13;100.00
6532;BME280;3299;42.004;24.868;2023-03-22T11:20:04;97983.25;;;14.16;100.00
6532;BME280;3299;42.004;24.868;2023-03-22T11:22:36;98007.94;;;14.31;100.00
6532;BME280;3299;42.004;24.868;2023-03-22T11:25:08;98003.94;;;14.08;100.00
6532;BME280;3299;42.004;24.868;2023-03-22T11:27:51;98046.69;;;14.53;100.00
6532;BME280;3299;42.004;24.868;2023-03-22T11:30:26;97980.41;;;14.28;100.00
6532;BME280;3299;42.004;24.868;2023-03-22T11:33:19;98063.78;;;14.84;100.00
6532;BME280;3299;42.004;24.868;2023-03-22T11:35:52;98019.69;;;14.63;100.00
6532;BME280;3299;42.004;24.868;2023-03-22T11:41:03;98043.78;;;14.84;100.00
6532;BME280;3299;42.004;24.868;2023-03-22T11:43:39;98014.34;;;14.65;100.00
6532;BME280;3299;42.004;24.868;2023-03-22T11:46:09;97993.63;;;14.73;100.00
6532;BME280;3299;42.004;24.868;2023-03-22T11:48:39;98033.84;;;15.07;100.00
6532;BME280;3299;42.004;24.868;2023-03-22T11:51:11;97988.16;;;14.76;100.00
6532;BME280;3299;42.004;24.868;2023-03-22T11:53:39;98024.53;;;15.04;100.00
6532;BME280;3299;42.004;24.868;2023-03-22T11:56:09;98041.50;;;15.18;100.00
6532;BME280;3299;42.004;24.868;2023-03-22T12:01:03;98032.59;;;15.11;100.00
6532;BME280;3299;42.004;24.868;2023-03-22T12:03:32;98012.19;;;14.97;100.00
6532;BME280;3299;42.004;24.868;2023-03-22T12:06:05;98038.47;;;15.13;100.00
6532;BME280;3299;42.004;24.868;2023-03-22T12:08:51;98000.53;;;15.01;100.00
6532;BME280;3299;42.004;24.868;2023-03-22T12:11:39;97988.31;;;15.11;100.00
6532;BME280;3299;42.004;24.868;2023-03-22T12:14:14;97979.25;;;15.05;100.00
6532;BME280;3299;42.004;24.868;2023-03-22T12:16:47;97999.53;;;15.11;100.00
6532;BME280;3299;42.004;24.868;2023-03-22T12:21:50;97960.06;;;15.06;100.00
6532;BME280;3299;42.004;24.868;2023-03-22T12:24:36;98028.28;;;15.38;100.00
6532;BME280;3299;42.004;24.868;2023-03-22T12:27:14;97993.75;;;15.17;100.00
6532;BME280;3299;42.004;24.868;2023-03-22T12:29:46;97989.31;;;15.27;100.00
6532;BME280;3299;42.004;24.868;2023-03-22T12:32:21;97955.53;;;14.72;100.00
6532;BME280;3299;42.004;24.868;2023-03-22T12:34:50;97961.53;;;14.82;100.00
6532;BME280;3299;42.004;24.868;2023-03-22T12:37:20;97968.06;;;14.86;100.00
6532;BME280;3299;42.004;24.868;2023-03-22T12:40:23;98033.22;;;15.41;100.00
6532;BME280;3299;42.004;24.868;2023-03-22T12:42:57;98007.13;;;15.32;100.00
6532;BME280;3299;42.004;24.868;2023-03-22T12:45:27;98001.75;;;15.43;100.00
6532;BME280;3299;42.004;24.868;2023-03-22T12:51:11;98023.59;;;15.42;100.00
6532;BME280;3299;42.004;24.868;2023-03-22T12:53:46;98035.03;;;15.58;100.00
6532;BME280;3299;42.004;24.868;2023-03-22T12:56:19;97953.47;;;15.12;100.00
6532;BME280;3299;42.004;24.868;2023-03-22T12:58:48;97963.03;;;15.21;100.00
6532;BME280;3299;42.004;24.868;2023-03-22T13:06:56;98034.50;;;15.55;100.00
6532;BME280;3299;42.004;24.868;2023-03-22T13:19:54;98017.00;;;15.38;100.00
6532;BME280;3299;42.004;24.868;2023-03-22T13:22:26;98046.88;;;15.53;100.00
6532;BME280;3299;42.004;24.868;2023-03-22T13:30:24;97973.81;;;14.99;100.00
6532;BME280;3299;42.004;24.868;2023-03-22T13:32:56;98054.88;;;15.42;100.00
6532;BME280;3299;42.004;24.868;2023-03-22T13:35:46;98059.84;;;15.35;100.00
6532;BME280;3299;42.004;24.868;2023-03-22T13:38:24;98062.59;;;15.34;100.00
6532;BME280;3299;42.004;24.868;2023-03-22T13:40:52;98068.06;;;15.31;100.00
6532;BME280;3299;42.004;24.868;2023-03-22T13:43:30;98063.78;;;14.84;100.00
6532;BME280;3299;42.004;24.868;2023-03-22T13:46:44;98064.78;;;14.64;100.00
6532;BME280;3299;42.004;24.868;2023-03-22T13:51:45;97974.81;;;13.46;100.00
6532;BME280;3299;42.004;24.868;2023-03-22T14:02:15;98026.78;;;13.36;100.00
6532;BME280;3299;42.004;24.868;2023-03-22T14:05:08;98006.34;;;13.22;100.00
6532;BME280;3299;42.004;24.868;2023-03-22T14:07:52;98011.84;;;13.29;100.00
6532;BME280;3299;42.004;24.868;2023-03-22T14:13:04;98025.81;;;13.37;100.00
6532;BME280;3299;42.004;24.868;2023-03-22T14:15:48;98001.72;;;13.26;100.00
6532;BME280;3299;42.004;24.868;2023-03-22T14:18:35;98052.91;;;13.35;100.00
6532;BME280;3299;42.004;24.868;2023-03-22T14:21:10;97979.22;;;13.06;100.00
6532;BME280;3299;42.004;24.868;2023-03-22T14:24:03;98065.78;;;13.46;100.00
6532;BME280;3299;42.004;24.868;2023-03-22T14:26:35;98061.63;;;13.34;100.00
6532;BME280;3299;42.004;24.868;2023-03-22T14:31:31;98044.38;;;13.23;100.00
6532;BME280;3299;42.004;24.868;2023-03-22T14:34:05;98020.78;;;13.06;100.00
6532;BME280;3299;42.004;24.868;2023-03-22T14:36:35;98047.44;;;13.08;100.00
6532;BME280;3299;42.004;24.868;2023-03-22T14:39:16;98002.69;;;12.54;100.00
6532;BME280;3299;42.004;24.868;2023-03-22T14:44:38;98020.34;;;12.80;100.00
6532;BME280;3299;42.004;24.868;2023-03-22T14:49:41;98060.81;;;13.03;100.00
6532;BME280;3299;42.004;24.868;2023-03-22T14:52:18;97963.84;;;12.43;100.00
6532;BME280;3299;42.004;24.868;2023-03-22T14:54:48;97966.72;;;12.29;100.00
6532;BME280;3299;42.004;24.868;2023-03-22T14:57:14;98016.22;;;12.37;100.00
6532;BME280;3299;42.004;24.868;2023-03-22T14:59:42;97980.03;;;12.15;100.00
6532;BME280;3299;42.004;24.868;2023-03-22T15:02:23;98068.66;;;12.72;100.00
6532;BME280;3299;42.004;24.868;2023-03-22T15:04:51;98043.94;;;12.57;100.00